createdAt,value
2023-03-16T00:00:19.033Z,0.27
2023-03-16T00:04:19.244Z,0.23
2023-03-16T00:07:55.748Z,0.19
2023-03-16T00:11:36.932Z,0.15
2023-03-16T00:15:14.682Z,0.12
2023-03-16T00:19:03.373Z,0.10
2023-03-16T00:22:52.088Z,0.07
2023-03-16T00:26:40.795Z,0.06
2023-03-16T00:30:29.697Z,0.04
2023-03-16T00:34:18.421Z,0.01
2023-03-16T00:38:07.143Z,-0.02
2023-03-16T00:41:18.479Z,-0.06
2023-03-16T00:45:07.216Z,-0.09
2023-03-16T00:48:56.112Z,-0.12
2023-03-16T00:52:15.125Z,-0.18
2023-03-16T00:56:00.399Z,-0.23
2023-03-16T00:59:30.378Z,-0.26
2023-03-16T01:03:03.347Z,-0.29
2023-03-16T01:06:52.103Z,-0.30
2023-03-16T01:10:40.749Z,-0.31
2023-03-16T01:14:29.478Z,-0.32
2023-03-16T01:18:18.127Z,-0.34
2023-03-16T01:22:06.802Z,-0.35
2023-03-16T01:25:54.430Z,-0.37
2023-03-16T01:29:35.562Z,-0.41
2023-03-16T01:33:16.799Z,-0.46
2023-03-16T01:37:05.569Z,-0.51
2023-03-16T01:40:56.990Z,-0.55
2023-03-16T01:44:45.725Z,-0.56
2023-03-16T01:48:25.045Z,-0.57
2023-03-16T01:52:34.753Z,-0.60
2023-03-16T01:56:23.537Z,-0.65
2023-03-16T02:00:12.564Z,-0.68
2023-03-16T02:04:04.185Z,-0.71
2023-03-16T02:07:53.093Z,-0.73
2023-03-16T02:11:42.573Z,-0.77
2023-03-16T02:15:31.360Z,-0.81
2023-03-16T02:19:20.197Z,-0.83
2023-03-16T02:23:08.969Z,-0.86
2023-03-16T02:26:59.078Z,-0.91
2023-03-16T02:30:53.629Z,-0.93
2023-03-16T02:34:34.815Z,-0.96
2023-03-16T02:38:23.541Z,-0.98
2023-03-16T02:42:13.979Z,-1.00
2023-03-16T02:45:55.281Z,-1.03
2023-03-16T02:49:44.014Z,-1.06
2023-03-16T02:53:32.741Z,-1.08
2023-03-16T02:57:21.456Z,-1.14
2023-03-16T03:01:10.347Z,-1.19
2023-03-16T03:04:50.800Z,-1.24
2023-03-16T03:08:39.541Z,-1.26
2023-03-16T03:12:28.259Z,-1.30
2023-03-16T03:15:58.019Z,-1.29
2023-03-16T03:19:39.455Z,-1.30
2023-03-16T03:23:28.147Z,-1.29
2023-03-16T03:27:16.929Z,-1.30
2023-03-16T03:31:05.758Z,-1.34
2023-03-16T03:34:34.536Z,-1.37
2023-03-16T03:38:23.340Z,-1.39
2023-03-16T03:42:12.234Z,-1.40
2023-03-16T03:45:43.475Z,-1.39
2023-03-16T03:49:32.215Z,-1.40
2023-03-16T03:53:20.987Z,-1.41
2023-03-16T03:56:55.236Z,-1.43
2023-03-16T04:00:36.760Z,-1.46
2023-03-16T04:04:25.552Z,-1.50
2023-03-16T04:08:14.341Z,-1.53
2023-03-16T04:11:57.023Z,-1.57
2023-03-16T04:15:44.417Z,-1.59
2023-03-16T04:19:33.212Z,-1.59
2023-03-16T04:23:12.920Z,-1.61
2023-03-16T04:26:51.752Z,-1.62
2023-03-16T04:30:40.563Z,-1.64
2023-03-16T04:34:32.248Z,-1.67
2023-03-16T04:38:20.999Z,-1.69
2023-03-16T04:42:15.551Z,-1.70
2023-03-16T04:46:04.453Z,-1.72
2023-03-16T04:49:53.220Z,-1.72
2023-03-16T04:53:41.970Z,-1.72
2023-03-16T04:57:30.692Z,-1.72
2023-03-16T05:01:19.539Z,-1.72
2023-03-16T05:04:58.193Z,-1.71
2023-03-16T05:08:46.971Z,-1.72
2023-03-16T05:12:35.678Z,-1.71
2023-03-16T05:16:15.756Z,-1.71
2023-03-16T05:20:04.540Z,-1.70
2023-03-16T05:23:53.317Z,-1.69
2023-03-16T05:27:42.108Z,-1.68
2023-03-16T05:31:14.034Z,-1.66
2023-03-16T05:34:59.169Z,-1.64
2023-03-16T05:38:47.979Z,-1.61
2023-03-16T05:42:36.731Z,-1.59
2023-03-16T05:46:24.383Z,-1.56
2023-03-16T05:50:13.142Z,-1.54
2023-03-16T05:54:01.929Z,-1.51
2023-03-16T05:57:51.022Z,-1.45
2023-03-16T06:01:32.220Z,-1.38
2023-03-16T06:05:20.965Z,-1.28
2023-03-16T06:08:59.558Z,-1.16
2023-03-16T06:12:38.290Z,-1.04
2023-03-16T06:16:16.991Z,-0.91
2023-03-16T06:19:45.742Z,-0.77
2023-03-16T06:23:33.590Z,-0.66
2023-03-16T06:27:12.255Z,-0.51
2023-03-16T06:30:23.458Z,-0.37
2023-03-16T06:34:11.215Z,-0.26
2023-03-16T06:37:51.673Z,-0.14
2023-03-16T06:41:43.135Z,-0.06
2023-03-16T06:45:12.601Z,0.01
2023-03-16T06:48:51.343Z,0.06
2023-03-16T06:52:19.479Z,0.12
2023-03-16T06:56:01.970Z,0.18
2023-03-16T06:59:40.718Z,0.26
2023-03-16T07:03:19.371Z,0.32
2023-03-16T07:07:08.709Z,0.39
2023-03-16T07:10:07.631Z,0.46
2023-03-16T07:13:21.628Z,0.52
2023-03-16T07:16:44.577Z,0.58
2023-03-16T07:20:14.608Z,0.66
2023-03-16T07:23:53.721Z,0.72
2023-03-16T07:27:45.208Z,0.81
2023-03-16T07:31:29.567Z,0.87
2023-03-16T07:35:02.881Z,0.94
2023-03-16T07:39:03.342Z,1.03
2023-03-16T07:42:52.428Z,1.11
2023-03-16T07:46:50.324Z,1.20
2023-03-16T07:50:31.306Z,1.28
2023-03-16T07:54:07.316Z,1.36
2023-03-16T07:57:47.732Z,1.45
2023-03-16T08:01:29.624Z,1.53
2023-03-16T08:05:13.740Z,1.62
2023-03-16T08:08:56.533Z,1.71
2023-03-16T08:12:44.677Z,1.82
2023-03-16T08:16:09.950Z,1.92
2023-03-16T08:20:01.624Z,2.01
2023-03-16T08:23:51.121Z,2.10
2023-03-16T08:27:45.496Z,2.19
2023-03-16T08:31:35.187Z,2.28
2023-03-16T08:35:17.618Z,2.39
2023-03-16T08:39:08.962Z,2.51
2023-03-16T08:42:52.790Z,2.72
2023-03-16T08:46:43.128Z,2.98
2023-03-16T08:50:34.866Z,3.22
2023-03-16T08:54:34.188Z,3.48
2023-03-16T08:58:32.428Z,3.76
2023-03-16T09:02:23.124Z,4.06
2023-03-16T09:06:12.394Z,4.33
2023-03-16T09:10:02.704Z,4.60
2023-03-16T09:13:53.029Z,4.85
2023-03-16T09:17:41.576Z,5.11
2023-03-16T09:21:33.789Z,5.39
2023-03-16T09:25:19.956Z,5.70
2023-03-16T09:29:09.435Z,5.93
2023-03-16T09:32:58.954Z,6.07
2023-03-16T09:36:48.809Z,6.13
2023-03-16T09:40:39.044Z,6.18
2023-03-16T09:44:43.424Z,6.18
2023-03-16T09:48:04.798Z,6.21
2023-03-16T09:51:39.326Z,6.23
2023-03-16T09:56:00.930Z,6.24
2023-03-16T09:59:49.600Z,6.24
2023-03-16T10:03:21.486Z,6.32
2023-03-16T10:06:52.674Z,6.44
2023-03-16T10:10:26.643Z,6.54
2023-03-16T10:14:37.271Z,6.61
2023-03-16T10:18:21.103Z,6.60
2023-03-16T10:22:03.905Z,6.57
2023-03-16T10:25:32.873Z,6.53
2023-03-16T10:28:53.814Z,6.49
2023-03-16T10:32:31.396Z,6.47
2023-03-16T10:36:31.054Z,6.49
2023-03-16T10:40:12.146Z,6.55
2023-03-16T10:43:55.704Z,6.65
2023-03-16T10:47:31.761Z,6.76
2023-03-16T10:51:24.036Z,6.88
2023-03-16T10:54:51.550Z,7.02
2023-03-16T10:58:30.629Z,7.10
2023-03-16T11:01:49.387Z,7.12
2023-03-16T11:05:26.111Z,7.09
2023-03-16T11:09:09.297Z,7.07
2023-03-16T11:13:02.393Z,7.03
2023-03-16T11:17:00.343Z,7.02
2023-03-16T11:20:05.808Z,7.00
2023-03-16T11:23:39.517Z,6.99
2023-03-16T11:27:35.357Z,6.93
2023-03-16T11:31:14.066Z,6.89
2023-03-16T11:34:47.674Z,6.86
2023-03-16T11:38:49.348Z,6.86
2023-03-16T11:42:17.421Z,6.85
2023-03-16T11:46:14.682Z,6.87
2023-03-16T11:49:46.349Z,6.87
2023-03-16T11:54:10.730Z,6.87
2023-03-16T11:58:02.783Z,6.85
2023-03-16T12:01:43.051Z,6.81
2023-03-16T12:05:28.376Z,6.78
2023-03-16T12:09:26.430Z,6.73
2023-03-16T12:13:16.839Z,6.69
2023-03-16T12:17:13.948Z,6.64
2023-03-16T12:20:55.577Z,6.61
2023-03-16T12:24:34.440Z,6.58
2023-03-16T12:28:37.103Z,6.56
2023-03-16T12:32:53.362Z,6.56
2023-03-16T12:36:50.018Z,6.58
2023-03-16T12:40:48.041Z,6.59
2023-03-16T12:44:40.405Z,6.60
2023-03-16T12:48:16.753Z,6.59
2023-03-16T12:51:49.253Z,6.58
2023-03-16T12:56:00.877Z,6.58
2023-03-16T12:59:42.466Z,6.58
2023-03-16T13:03:31.586Z,6.55
2023-03-16T13:07:11.937Z,6.54
2023-03-16T13:11:07.111Z,6.52
2023-03-16T13:14:49.766Z,6.51
2023-03-16T13:18:27.815Z,6.51
2023-03-16T13:22:14.642Z,6.50
2023-03-16T13:26:11.158Z,6.50
2023-03-16T13:29:31.052Z,6.48
2023-03-16T13:33:12.960Z,6.45
2023-03-16T13:36:56.398Z,6.42
2023-03-16T13:40:57.999Z,6.42
2023-03-16T13:45:19.253Z,6.42
2023-03-16T13:48:34.332Z,6.42
2023-03-16T13:52:26.471Z,6.42
2023-03-16T13:55:56.512Z,6.43
2023-03-16T13:59:28.937Z,6.43
2023-03-16T14:03:17.704Z,6.45
2023-03-16T14:06:34.691Z,6.47
2023-03-16T14:10:13.471Z,6.47
2023-03-16T14:14:00.859Z,6.49
2023-03-16T14:17:49.643Z,6.50
2023-03-16T14:21:26.649Z,6.51
2023-03-16T14:24:59.006Z,6.51
2023-03-16T14:28:47.993Z,6.51
2023-03-16T14:32:17.479Z,6.50
2023-03-16T14:36:03.456Z,6.48
2023-03-16T14:39:49.189Z,6.46
2023-03-16T14:43:40.678Z,6.41
2023-03-16T14:47:19.302Z,6.38
2023-03-16T14:51:00.547Z,6.34
2023-03-16T14:54:58.284Z,6.31
2023-03-16T14:58:10.458Z,6.29
2023-03-16T15:01:39.128Z,6.26
2023-03-16T15:05:17.908Z,6.23
2023-03-16T15:08:42.074Z,6.17
2023-03-16T15:12:30.806Z,6.11
2023-03-16T15:16:04.737Z,6.08
2023-03-16T15:19:43.517Z,6.06
2023-03-16T15:22:51.736Z,6.05
2023-03-16T15:26:26.371Z,6.03
2023-03-16T15:30:15.130Z,6.02
2023-03-16T15:33:53.784Z,6.02
2023-03-16T15:37:33.102Z,5.99
2023-03-16T15:41:18.819Z,5.97
2023-03-16T15:44:58.409Z,5.94
2023-03-16T15:48:10.984Z,5.90
2023-03-16T15:51:44.817Z,5.86
2023-03-16T15:55:36.632Z,5.83
2023-03-16T15:59:25.383Z,5.80
2023-03-16T16:03:26.192Z,5.79
2023-03-16T16:06:50.165Z,5.76
2023-03-16T16:10:08.773Z,5.73
2023-03-16T16:13:44.745Z,5.69
2023-03-16T16:17:47.887Z,5.62
2023-03-16T16:21:07.283Z,5.54
2023-03-16T16:24:56.271Z,5.49
2023-03-16T16:28:56.844Z,5.41
2023-03-16T16:32:45.804Z,5.33
2023-03-16T16:36:07.397Z,5.26
2023-03-16T16:39:27.458Z,5.18
2023-03-16T16:43:16.248Z,5.11
2023-03-16T16:46:54.877Z,5.03
2023-03-16T16:50:43.712Z,4.95
2023-03-16T16:54:16.071Z,4.87
2023-03-16T16:58:09.822Z,4.79
2023-03-16T17:02:01.214Z,4.71
2023-03-16T17:05:58.404Z,4.62
2023-03-16T17:09:47.185Z,4.52
2023-03-16T17:13:35.984Z,4.42
2023-03-16T17:17:19.427Z,4.31
2023-03-16T17:20:55.177Z,4.21
2023-03-16T17:24:36.801Z,4.13
2023-03-16T17:28:18.868Z,4.02
2023-03-16T17:31:41.254Z,3.93
2023-03-16T17:35:19.922Z,3.85
2023-03-16T17:39:17.932Z,3.76
2023-03-16T17:43:18.419Z,3.66
2023-03-16T17:46:56.559Z,3.56
2023-03-16T17:50:20.894Z,3.48
2023-03-16T17:54:01.039Z,3.39
2023-03-16T17:57:49.880Z,3.30
2023-03-16T18:01:31.462Z,3.21
2023-03-16T18:05:05.985Z,3.13
2023-03-16T18:08:55.092Z,3.05
2023-03-16T18:12:44.079Z,2.98
2023-03-16T18:17:10.116Z,2.90
2023-03-16T18:20:32.819Z,2.83
2023-03-16T18:24:17.277Z,2.75
2023-03-16T18:27:56.983Z,2.68
2023-03-16T18:31:45.774Z,2.60
2023-03-16T18:35:27.424Z,2.52
2023-03-16T18:39:09.175Z,2.45
2023-03-16T18:42:23.960Z,2.38
2023-03-16T18:45:55.891Z,2.32
2023-03-16T18:49:36.358Z,2.25
2023-03-16T18:53:27.978Z,2.18
2023-03-16T18:57:19.796Z,2.08
2023-03-16T19:00:55.064Z,2.02
2023-03-16T19:04:46.231Z,1.96
2023-03-16T19:08:34.875Z,1.91
2023-03-16T19:12:22.500Z,1.87
2023-03-16T19:16:04.114Z,1.83
2023-03-16T19:19:53.241Z,1.79
2023-03-16T19:23:47.496Z,1.76
2023-03-16T19:27:36.267Z,1.71
2023-03-16T19:31:05.084Z,1.68
2023-03-16T19:34:46.487Z,1.66
2023-03-16T19:38:00.661Z,1.64
2023-03-16T19:41:40.204Z,1.62
2023-03-16T19:45:29.238Z,1.61
2023-03-16T19:48:53.610Z,1.60
2023-03-16T19:52:35.056Z,1.60
2023-03-16T19:56:06.635Z,1.61
2023-03-16T19:59:39.414Z,1.60
2023-03-16T20:03:16.639Z,1.60
2023-03-16T20:06:59.665Z,1.60
2023-03-16T20:10:45.709Z,1.61
2023-03-16T20:14:33.714Z,1.60
2023-03-16T20:18:07.860Z,1.61
2023-03-16T20:21:56.671Z,1.62
2023-03-16T20:25:28.842Z,1.62
2023-03-16T20:28:59.089Z,1.63
2023-03-16T20:32:38.854Z,1.64
2023-03-16T20:36:27.717Z,1.65
2023-03-16T20:39:55.059Z,1.66
2023-03-16T20:43:26.632Z,1.66
2023-03-16T20:46:39.057Z,1.67
2023-03-16T20:49:53.200Z,1.67
2023-03-16T20:53:31.782Z,1.66
2023-03-16T20:57:13.802Z,1.67
2023-03-16T21:01:16.330Z,1.69
2023-03-16T21:05:05.178Z,1.70
2023-03-16T21:08:53.970Z,1.72
2023-03-16T21:12:34.956Z,1.72
2023-03-16T21:15:54.795Z,1.72
2023-03-16T21:19:36.068Z,1.72
2023-03-16T21:23:24.762Z,1.72
2023-03-16T21:26:53.704Z,1.70
2023-03-16T21:30:45.298Z,1.69
2023-03-16T21:34:36.812Z,1.66
2023-03-16T21:38:18.063Z,1.63
2023-03-16T21:42:05.255Z,1.58
2023-03-16T21:45:53.977Z,1.54
2023-03-16T21:49:42.703Z,1.49
2023-03-16T21:53:31.579Z,1.44
2023-03-16T21:57:20.349Z,1.39
2023-03-16T22:01:01.744Z,1.35
2023-03-16T22:04:46.070Z,1.29
2023-03-16T22:08:34.966Z,1.23
2023-03-16T22:12:26.502Z,1.16
2023-03-16T22:16:15.244Z,1.08
2023-03-16T22:20:03.977Z,1.01
2023-03-16T22:23:52.649Z,0.95
2023-03-16T22:27:41.364Z,0.91
2023-03-16T22:31:30.046Z,0.85
2023-03-16T22:35:36.680Z,0.81
2023-03-16T22:39:18.741Z,0.74
2023-03-16T22:42:57.368Z,0.69
2023-03-16T22:46:33.562Z,0.66
2023-03-16T22:50:13.442Z,0.61
2023-03-16T22:54:04.815Z,0.57
2023-03-16T22:57:53.502Z,0.54
2023-03-16T23:01:20.680Z,0.51
2023-03-16T23:05:07.977Z,0.49
2023-03-16T23:08:56.654Z,0.45
2023-03-16T23:12:45.417Z,0.41
2023-03-16T23:16:27.023Z,0.35
2023-03-16T23:20:18.566Z,0.29
2023-03-16T23:24:07.225Z,0.25
2023-03-16T23:27:58.881Z,0.21
2023-03-16T23:31:45.422Z,0.16
2023-03-16T23:35:24.098Z,0.12
2023-03-16T23:39:05.455Z,0.08
2023-03-16T23:42:54.275Z,0.06
2023-03-16T23:46:33.413Z,0.02
2023-03-16T23:50:22.127Z,-0.02
2023-03-16T23:54:13.682Z,-0.04
2023-03-16T23:58:02.433Z,-0.07
